Flight Track Log - Related Links

Times and Time Zones

All times are in EDT time to prevent confusion due to time zone crossing. See the SWA311 flight status page for this flight to view local times or setup timezone preferences in your user account.

Time Position Orientation Groundspeed Altitude Reporting Facility
EDT Latitude Longitude Course Direction KTS MPH feet Rate Location/Type
Sun 11:18:31 AM 26.0889 -80.0722 76° East 197 227 2,400  Level Miami Center
Sun 11:19:31 AM 26.0986 -80.0056 81° East 222 255 5,100 2,500 Climbing Miami Center
Sun 11:20:31 AM 26.1656 -80.0025 North 285 328 7,400 2,684 Climbing Miami Center
Sun 11:20:47 AM 26.1775 -80.0308 295° West 298 343 8,500 1,600 Climbing Miami Center
Sun 11:21:31 AM 26.1992 -80.0892 292° West 291 335 9,000 492 Climbing Miami Center
Sun 11:21:48 AM 26.2069 -80.1147 289° West 291 335 9,000  Level Miami Center
Sun 11:22:31 AM 26.2331 -80.1689 298° West 291 335 9,000  Level Miami Center
Sun 11:22:56 AM 26.2406 -80.2061 283° West 288 331 9,000  Level Miami Center
Sun 11:23:31 AM 26.2497 -80.2572 281° West 292 336 9,000 218 Level Miami Center
Sun 11:23:51 AM 26.2511 -80.2897 273° West 289 333 9,200 1,000 Climbing Miami Center
Sun 11:24:31 AM 26.2603 -80.3456 280° West 292 336 10,000 480 Climbing Miami Center
Sun 11:25:31 AM 26.2725 -80.4386 278° West 334 384 10,000 550 Level Miami Center
Sun 11:26:31 AM 26.2967 -80.5575 283° West 361 415 11,100 1,950 Climbing Miami Center
Sun 11:27:31 AM 26.3489 -80.6425 304° West 361 415 13,900 3,250 Climbing Miami Center
Sun 11:28:31 AM 26.4086 -80.7489 302° West 372 428 17,600 2,950 Climbing Miami Center
Sun 11:29:31 AM 26.4264 -80.8631 280° West 367 422 19,800 2,400 Climbing Miami Center
Sun 11:30:31 AM 26.4358 -80.9817 275° West 382 440 22,400 1,600 Climbing Miami Center
Sun 11:31:31 AM 26.4981 -81.0697 308° West 382 440 23,000 1,000 Climbing Miami Center
Sun 11:32:31 AM 26.5811 -81.1494 319° Northwest 382 440 24,400 1,100 Climbing Miami Center
Sun 11:33:31 AM 26.6767 -81.2433 319° Northwest 405 466 25,200 1,200 Climbing Miami Center
Sun 11:34:31 AM 26.7433 -81.3111 318° Northwest 405 466 26,800 1,750 Climbing Miami Center
Sun 11:35:31 AM 26.8403 -81.4194 315° West 410 472 28,700 2,000 Climbing Miami Center
Sun 11:36:31 AM 26.8872 -81.5144 299° West 404 465 30,800 1,900 Climbing Miami Center
Sun 11:37:31 AM 26.9422 -81.6214 300° West 393 452 32,500 1,600 Climbing Miami Center
Sun 11:38:31 AM 26.9931 -81.7283 298° West 386 444 34,000 1,950 Climbing Miami Center
Sun 11:39:31 AM 27.0500 -81.8381 300° West 386 444 36,400 1,950 Climbing Miami Center
Sun 11:40:31 AM 27.0967 -81.9356 298° West 375 432 37,900 800 Climbing Miami Center
Sun 11:41:31 AM 27.1225 -82.0278 287° West 349 402 38,000 50 Climbing Miami Center
Sun 11:42:31 AM 27.1544 -82.1294 289° West 349 402 38,000  Level Miami Center
Sun 11:43:31 AM 27.1856 -82.2428 287° West 349 402 38,000  Level Miami Center
Sun 11:45:31 AM 27.2447 -82.4442 288° West 354 407 38,000  Level Miami Center
Sun 11:46:31 AM 27.2742 -82.5458 288° West 354 407 38,000  Level Miami Center
Sun 11:47:31 AM 27.3050 -82.6619 287° West 348 400 38,000  Level Miami Center
Sun 11:48:31 AM 27.3364 -82.7661 289° West 348 400 38,000  Level Miami Center
Sun 11:49:31 AM 27.3653 -82.8728 287° West 348 400 38,000  Level Miami Center
Sun 11:50:31 AM 27.3944 -82.9747 288° West 348 400 38,000  Level Miami Center
Sun 11:51:31 AM 27.4233 -83.0817 287° West 348 400 38,000  Level Miami Center
Sun 11:52:31 AM 27.4522 -83.1836 288° West 348 400 38,000  Level Miami Center
Sun 11:53:31 AM 27.4808 -83.2881 287° West 348 400 38,000  Level Miami Center
Sun 11:54:31 AM 27.5117 -83.3950 288° West 348 400 38,000  Level Miami Center
Sun 11:55:31 AM 27.5381 -83.4972 286° West 348 400 38,000  Level Miami Center
Sun 11:56:31 AM 27.5708 -83.6022 289° West 348 400 38,000  Level Miami Center
Sun 11:57:31 AM 27.5972 -83.7067 286° West 348 400 38,000  Level Miami Center
Sun 11:58:31 AM 27.6256 -83.8136 287° West 348 400 38,000  Level Miami Center
Sun 11:59:31 AM 27.6536 -83.9208 286° West 348 400 38,000  Level Miami Center
Sun 12:00:31 PM 27.6817 -84.0281 286° West 354 407 38,000  Level Miami Center
Sun 12:02:43 PM 27.7506 -84.2594 289° West 372 428 38,000  Level Jacksonville Center
Sun 12:03:44 PM 27.7764 -84.3631 286° West 356 410 38,000  Level Jacksonville Center
Sun 12:04:44 PM 27.8064 -84.4667 288° West 351 404 38,000  Level Jacksonville Center
Sun 12:05:43 PM 27.8303 -84.5703 285° West 345 397 38,000  Level Jacksonville Center
Sun 12:06:44 PM 27.8561 -84.6717 286° West 345 397 38,000  Level Jacksonville Center
Sun 12:07:44 PM 27.8836 -84.7825 286° West 345 397 38,000  Level Jacksonville Center
Sun 12:08:43 PM 27.9136 -84.8747 290° West 345 397 38,000  Level Jacksonville Center
Sun 12:09:44 PM 27.9389 -84.9881 284° West 345 397 38,000  Level Jacksonville Center
Sun 12:10:44 PM 27.9664 -85.0919 287° West 346 398 38,000  Level Jacksonville Center
Sun 12:11:43 PM 27.9958 -85.1911 289° West 352 405 38,000  Level Jacksonville Center
Sun 12:12:44 PM 28.0231 -85.3047 285° West 358 412 38,000  Level Jacksonville Center
Sun 12:13:43 PM 28.0503 -85.4089 287° West 358 412 38,000  Level Jacksonville Center
Sun 12:14:43 PM 28.0772 -85.5153 286° West 358 412 38,000  Level Jacksonville Center
Sun 12:15:44 PM 28.0958 -85.6217 281° West 352 405 38,000  Level Jacksonville Center
Sun 12:16:43 PM 28.1083 -85.7256 278° West 357 411 38,000  Level Jacksonville Center
Sun 12:17:44 PM 28.1225 -85.8342 278° West 351 404 38,000  Level Jacksonville Center
Sun 12:18:44 PM 28.1347 -85.9403 277° West 351 404 38,000  Level Jacksonville Center
Sun 12:19:44 PM 28.1489 -86.0467 279° West 351 404 38,000  Level Jacksonville Center
Sun 12:20:43 PM 28.1608 -86.1483 278° West 351 404 38,000  Level Jacksonville Center
Sun 12:21:44 PM 28.1750 -86.2547 279° West 347 399 38,000  Level Jacksonville Center
Sun 12:22:43 PM 28.1867 -86.3586 277° West 342 394 38,000  Level Jacksonville Center
Sun 12:23:44 PM 28.2025 -86.4653 280° West 342 394 38,000  Level Jacksonville Center
Sun 12:24:44 PM 28.2142 -86.5692 277° West 337 388 38,000  Level Jacksonville Center
Sun 12:25:43 PM 28.2300 -86.6781 279° West 342 394 38,000  Level Jacksonville Center
Sun 12:26:43 PM 28.2372 -86.7772 275° West 336 387 38,000  Level Jacksonville Center
Sun 12:27:44 PM 28.2508 -86.8839 278° West 336 387 38,000  Level Jacksonville Center
Sun 12:28:43 PM 28.2664 -86.9881 280° West 336 387 38,000  Level Jacksonville Center
Sun 12:29:43 PM 28.2775 -87.0947 277° West 336 387 38,000  Level Jacksonville Center
Sun 12:30:44 PM 28.2864 -87.2033 275° West 344 396 38,000  Level Jacksonville Center
Sun 12:31:43 PM 28.2994 -87.3075 278° West 349 402 38,000  Level Jacksonville Center
Sun 12:32:43 PM 28.3103 -87.4142 277° West 355 409 38,000  Level Jacksonville Center
Sun 12:33:44 PM 28.3272 -87.5281 280° West 355 409 38,000  Level Jacksonville Center
Sun 12:36:08 PM 28.3564 -87.7933 277° West 353 406 38,000  Level Houston Center
Sun 12:37:10 PM 28.3686 -87.9061 277° West 356 410 38,000  Level Houston Center
Sun 12:38:12 PM 28.3817 -88.0186 278° West 361 415 38,000  Level Houston Center
Sun 12:39:14 PM 28.4122 -88.1317 287° West 364 419 38,000  Level Houston Center
Sun 12:40:16 PM 28.4233 -88.2428 277° West 355 409 38,000  Level Houston Center
Sun 12:41:18 PM 28.4344 -88.3533 277° West 353 406 38,000  Level Houston Center
Sun 12:42:20 PM 28.4461 -88.4656 277° West 357 411 38,000  Level Houston Center
Sun 12:43:22 PM 28.4639 -88.5972 279° West 353 406 38,000  Level Houston Center
Sun 12:44:24 PM 28.4892 -88.7064 285° West 357 411 38,000  Level Houston Center
Sun 12:45:26 PM 28.5139 -88.8189 284° West 365 420 38,000  Level Houston Center
Sun 12:46:28 PM 28.5375 -88.9306 284° West 362 417 38,000  Level Houston Center
Sun 12:47:30 PM 28.5614 -89.0431 284° West 365 420 38,000  Level Houston Center
Sun 12:48:32 PM 28.5856 -89.1578 284° West 372 428 38,000  Level Houston Center
Sun 12:49:34 PM 28.6094 -89.2706 284° West 367 422 38,000  Level Houston Center
Sun 12:50:36 PM 28.6383 -89.4064 284° West 367 422 38,000  Level Houston Center
Sun 12:51:38 PM 28.6617 -89.5192 283° West 367 422 38,000  Level Houston Center
Sun 12:52:40 PM 28.6858 -89.6361 283° West 375 432 38,000  Level Houston Center
Sun 12:53:42 PM 28.7097 -89.7525 283° West 378 435 38,000  Level Houston Center
Sun 12:54:44 PM 28.7333 -89.8678 283° West 374 430 38,000  Level Houston Center
Sun 12:55:46 PM 28.7581 -89.9842 284° West 377 434 38,000  Level Houston Center
Sun 12:56:48 PM 28.7867 -90.1264 283° West 382 440 38,000  Level Houston Center
Sun 12:57:50 PM 28.8103 -90.2444 283° West 383 441 38,000  Level Houston Center
Sun 12:58:52 PM 28.8347 -90.3636 283° West 384 442 38,000  Level Houston Center
Sun 12:59:54 PM 28.8592 -90.4817 283° West 384 442 38,000  Level Houston Center
Sun 01:00:56 PM 28.8831 -90.6000 283° West 383 441 38,000  Level Houston Center
Sun 01:01:58 PM 28.9064 -90.7189 283° West 383 441 38,000  Level Houston Center
Sun 01:03:00 PM 28.9333 -90.8575 283° West 373 429 38,000  Level Houston Center
Sun 01:04:02 PM 28.9558 -90.9731 283° West 373 429 38,000  Level Houston Center
Sun 01:05:05 PM 28.9789 -91.0908 283° West 379 436 38,000  Level Houston Center
Sun 01:06:07 PM 29.0025 -91.2097 283° West 383 441 38,000  Level Houston Center
Sun 01:07:09 PM 29.0264 -91.3297 283° West 386 444 38,000  Level Houston Center
Sun 01:08:11 PM 29.0492 -91.4494 282° West 387 445 38,000  Level Houston Center
Sun 01:09:13 PM 29.0769 -91.5922 283° West 384 442 38,000  Level Houston Center
Sun 01:10:15 PM 29.1003 -91.7111 283° West 385 443 38,000  Level Houston Center
Sun 01:11:17 PM 29.1239 -91.8353 282° West 388 447 38,000  Level Houston Center
Sun 01:12:19 PM 29.1461 -91.9528 282° West 381 438 38,000  Level Houston Center
Sun 01:13:21 PM 29.1678 -92.0700 282° West 379 436 38,000  Level Houston Center
Sun 01:14:23 PM 29.1900 -92.1869 282° West 377 434 38,000  Level Houston Center
Sun 01:15:25 PM 29.2114 -92.3028 282° West 373 429 38,000  Level Houston Center
Sun 01:16:27 PM 29.2372 -92.4431 282° West 375 432 38,000  Level Houston Center
Sun 01:17:29 PM 29.2436 -92.5581 274° West 363 418 38,000  Level Houston Center
Sun 01:18:31 PM 29.2461 -92.6758 271° West 368 423 38,000  Level Houston Center
Sun 01:19:33 PM 29.2489 -92.7944 272° West 372 428 38,000 -48 Level Houston Center
Sun 01:20:35 PM 29.2319 -92.9078 260° West 363 418 37,900 -629 Descending Houston Center
Sun 01:21:37 PM 29.1919 -93.0172 247° West 372 428 36,700 -1,597 Descending Houston Center
Sun 01:22:39 PM 29.1519 -93.1278 248° West 373 429 34,600 -2,032 Descending Houston Center
Sun 01:23:41 PM 29.1014 -93.2572 246° West 373 429 32,500 -1,887 Descending Houston Center
Sun 01:24:43 PM 29.0564 -93.3625 244° Southwest 369 425 30,700 -1,452 Descending Houston Center
Sun 01:25:45 PM 29.0464 -93.4714 264° West 355 409 29,500 -1,500 Descending Houston Center
Sun 01:26:47 PM 29.0725 -93.5817 285° West 358 412 27,600 -1,776 Descending Houston Center
Sun 01:27:50 PM 29.0947 -93.6872 284° West 346 398 25,800 -1,728 Descending Houston Center
Sun 01:28:52 PM 29.1172 -93.7906 284° West 338 389 24,000 -1,887 Descending Houston Center
Sun 01:29:54 PM 29.1422 -93.9081 284° West 328 377 21,900 -1,790 Descending Houston Center
Sun 01:30:56 PM 29.1636 -94.0044 284° West 319 367 20,300 -1,597 Descending Houston Center
Sun 01:31:58 PM 29.1850 -94.0997 284° West 313 360 18,600 -1,846 Descending Houston Center
Sun 01:32:14 PM 29.1917 -94.1356 282° West 305 351 17,900 -1,645 Descending Houston Center
Sun 01:33:00 PM 29.2036 -94.1917 284° West 302 348 16,900 -1,444 Descending Houston Center
Sun 01:34:02 PM 29.2242 -94.2831 284° West 297 342 15,300 -1,762 Descending Houston Center
Sun 01:35:06 PM 29.2469 -94.3919 284° West 288 331 13,200 -1,597 Descending Houston Center
Sun 01:36:06 PM 29.2667 -94.4853 284° West 297 342 12,000 -1,033 Descending Houston Center
Sun 01:37:08 PM 29.3089 -94.5692 300° West 311 358 11,100 -976 Descending Houston Center
Sun 01:38:09 PM 29.3558 -94.6658 299° West 314 361 10,000 -836 Descending Houston Center
Sun 01:39:10 PM 29.3953 -94.7494 298° West 273 314 9,400 -738 Descending Houston Center
Sun 01:40:11 PM 29.4342 -94.8264 300° West 276 318 8,500 -984 Descending Houston Center
Sun 01:41:12 PM 29.4733 -94.9053 300° West 275 316 7,400 -1,033 Descending Houston Center
Sun 01:42:13 PM 29.5097 -94.9778 300° West 262 302 6,400 -689 Descending Houston Center
Sun 01:43:14 PM 29.5461 -95.0525 299° West 258 297 6,000 -186 Descending Houston Center
Sun 01:44:22 PM 29.5806 -95.1231 299° West 258 297 6,000  Level Houston Center
Sun 01:45:17 PM 29.5789 -95.1997 269° West 234 269 6,000 -103 Level Houston Center
Sun 01:46:18 PM 29.5425 -95.2594 235° Southwest 221 254 5,800 -689 Descending Houston Center
Sun 01:47:19 PM 29.4989 -95.3103 225° Southwest 223 257 4,600 -836 Descending Houston Center
Sun 01:48:20 PM 29.5203 -95.3631 295° West 175 201 4,100 -934 Descending Houston Center
Sun 01:49:21 PM 29.5681 -95.3572 North 196 226 2,700 -1,263 Descending Houston Center
Sun 01:50:33 PM 29.6094 -95.3183 39° Northeast 172 198 1,300 -1,180 Descending Houston Center
Sun 01:51:23 PM 29.6314 -95.2919 46° Northeast 142 163 300 -1,200 Descending Houston Center

Login

Don't have an account? Register now (free) for customized features, flight alerts, and more!